createdAt,value
2024-03-21T00:01:11.059Z,8.60
2024-03-21T00:03:38.754Z,8.60
2024-03-21T00:06:06.307Z,9.20
2024-03-21T00:08:33.883Z,8.70
2024-03-21T00:11:01.401Z,8.70
2024-03-21T00:13:28.961Z,9.40
2024-03-21T00:15:56.522Z,8.60
2024-03-21T00:18:25.343Z,9.30
2024-03-21T00:20:52.879Z,8.50
2024-03-21T00:23:20.435Z,8.50
2024-03-21T00:25:48.116Z,8.90
2024-03-21T00:28:17.254Z,8.80
2024-03-21T00:30:45.568Z,8.90
2024-03-21T00:33:13.167Z,9.20
2024-03-21T00:35:41.212Z,8.50
2024-03-21T00:38:08.759Z,8.10
2024-03-21T00:40:36.398Z,9.40
2024-03-21T00:43:04.084Z,9.30
2024-03-21T00:45:32.057Z,10.10
2024-03-21T00:48:01.812Z,8.50
2024-03-21T00:50:30.371Z,8.90
2024-03-21T00:52:57.909Z,8.70
2024-03-21T00:55:26.443Z,9.30
2024-03-21T00:57:54.156Z,8.80
2024-03-21T01:00:22.596Z,10.20
2024-03-21T01:02:50.230Z,8.80
2024-03-21T01:05:20.131Z,9.10
2024-03-21T01:07:49.123Z,8.60
2024-03-21T01:10:16.760Z,9.60
2024-03-21T01:12:46.046Z,9.80
2024-03-21T01:15:13.631Z,9.30
2024-03-21T01:17:41.218Z,8.80
2024-03-21T01:20:09.382Z,9.50
2024-03-21T01:22:36.935Z,9.10
2024-03-21T01:25:05.771Z,11.40
2024-03-21T01:27:33.278Z,11.30
2024-03-21T01:30:00.901Z,13.00
2024-03-21T01:32:28.740Z,16.20
2024-03-21T01:34:56.260Z,15.60
2024-03-21T01:37:23.818Z,16.90
2024-03-21T01:39:51.340Z,15.70
2024-03-21T01:42:19.600Z,16.30
2024-03-21T01:45:04.605Z,15.40
2024-03-21T01:47:32.286Z,15.80
2024-03-21T01:49:59.990Z,14.90
2024-03-21T01:52:30.304Z,14.00
2024-03-21T01:54:57.843Z,13.30
2024-03-21T01:57:25.506Z,12.70
2024-03-21T01:59:53.790Z,13.20
2024-03-21T02:02:21.331Z,12.40
2024-03-21T02:04:49.458Z,11.70
2024-03-21T02:07:19.471Z,12.30
2024-03-21T02:09:47.097Z,12.70
2024-03-21T02:12:14.544Z,10.40
2024-03-21T02:14:42.152Z,11.70
2024-03-21T02:17:09.716Z,11.90
2024-03-21T02:19:37.261Z,10.50
2024-03-21T02:22:25.204Z,12.20
2024-03-21T02:24:54.357Z,12.40
2024-03-21T02:27:21.962Z,11.10
2024-03-21T02:29:49.922Z,11.40
2024-03-21T02:32:17.365Z,10.00
2024-03-21T02:34:46.445Z,13.00
2024-03-21T02:37:13.882Z,12.10
2024-03-21T02:39:42.793Z,11.90
2024-03-21T02:42:10.290Z,12.00
2024-03-21T02:44:38.039Z,11.10
2024-03-21T02:47:05.646Z,12.00
2024-03-21T02:49:33.485Z,11.80
2024-03-21T02:52:01.381Z,12.60
2024-03-21T02:54:31.186Z,12.60
2024-03-21T02:57:10.085Z,11.10
2024-03-21T02:59:37.713Z,12.60
2024-03-21T03:02:05.713Z,13.00
2024-03-21T03:04:33.769Z,12.80
2024-03-21T03:07:01.307Z,13.50
2024-03-21T03:09:28.759Z,14.70
2024-03-21T03:11:56.329Z,17.60
2024-03-21T03:14:23.884Z,17.80
2024-03-21T03:16:51.995Z,17.20
2024-03-21T03:19:19.533Z,18.30
2024-03-21T03:21:47.185Z,19.40
2024-03-21T03:24:14.739Z,18.00
2024-03-21T03:26:42.245Z,20.60
2024-03-21T03:29:09.900Z,19.70
2024-03-21T03:31:37.659Z,20.60
2024-03-21T03:34:23.929Z,20.40
2024-03-21T03:36:51.522Z,21.40
2024-03-21T03:39:19.064Z,20.10
2024-03-21T03:41:46.606Z,20.00
2024-03-21T03:44:15.123Z,22.50
2024-03-21T03:46:42.910Z,21.00
2024-03-21T03:49:10.549Z,21.40
2024-03-21T03:51:38.106Z,21.80
2024-03-21T03:54:05.637Z,23.40
2024-03-21T03:56:33.212Z,24.60
2024-03-21T03:59:00.750Z,22.10
2024-03-21T04:01:28.249Z,22.90
2024-03-21T04:03:56.086Z,23.10
2024-03-21T04:06:23.634Z,22.00
2024-03-21T04:08:51.405Z,22.40
2024-03-21T04:11:19.371Z,24.30
2024-03-21T04:13:47.886Z,22.80
2024-03-21T04:16:18.510Z,22.80
2024-03-21T04:18:45.952Z,25.90
2024-03-21T04:21:13.605Z,25.60
2024-03-21T04:23:41.129Z,25.60
2024-03-21T04:26:08.665Z,27.00
2024-03-21T04:28:36.205Z,25.30
2024-03-21T04:31:04.084Z,24.80
2024-03-21T04:33:31.607Z,25.90
2024-03-21T04:35:59.235Z,25.50
2024-03-21T04:38:40.859Z,23.90
2024-03-21T04:41:14.257Z,24.10
2024-03-21T04:43:41.825Z,26.50
2024-03-21T04:46:09.378Z,25.70
2024-03-21T04:48:36.963Z,23.90
2024-03-21T04:51:04.812Z,23.60
2024-03-21T04:53:32.572Z,24.90
2024-03-21T04:56:04.884Z,23.10
2024-03-21T04:58:32.462Z,23.90
2024-03-21T05:00:59.963Z,23.30
2024-03-21T05:03:27.545Z,25.30
2024-03-21T05:05:55.395Z,25.00
2024-03-21T05:08:23.050Z,25.10
2024-03-21T05:10:50.624Z,23.30
2024-03-21T05:13:18.182Z,23.60
2024-03-21T05:15:49.882Z,21.90
2024-03-21T05:18:17.861Z,22.60
2024-03-21T05:20:46.283Z,23.00
2024-03-21T05:23:14.161Z,23.40
2024-03-21T05:25:42.317Z,23.60
2024-03-21T05:35:45.880Z,24.80
2024-03-21T05:38:15.974Z,24.40
2024-03-21T05:40:44.576Z,25.20
2024-03-21T05:43:12.134Z,24.30
2024-03-21T05:45:39.944Z,24.90
2024-03-21T05:48:07.335Z,25.80
2024-03-21T05:50:34.923Z,23.50
2024-03-21T05:53:02.477Z,25.20
2024-03-21T05:55:30.050Z,23.30
2024-03-21T05:57:59.998Z,22.20
2024-03-21T06:00:27.538Z,23.80
2024-03-21T06:02:55.076Z,24.00
2024-03-21T06:05:22.732Z,22.10
2024-03-21T06:07:50.354Z,20.20
2024-03-21T06:10:17.874Z,20.20
2024-03-21T06:12:45.440Z,21.50
2024-03-21T06:15:12.974Z,19.60
2024-03-21T06:17:40.431Z,20.90
2024-03-21T06:20:10.008Z,18.00
2024-03-21T06:22:38.420Z,16.60
2024-03-21T06:25:06.008Z,18.10
2024-03-21T06:27:33.538Z,16.70
2024-03-21T06:30:01.200Z,17.40
2024-03-21T06:32:28.774Z,17.70
2024-03-21T06:34:56.455Z,17.60
2024-03-21T06:37:24.089Z,17.60
2024-03-21T06:39:51.472Z,17.30
2024-03-21T06:42:19.202Z,17.50
2024-03-21T06:44:46.919Z,19.30
2024-03-21T06:47:14.447Z,19.40
2024-03-21T06:49:42.500Z,16.50
2024-03-21T06:52:10.368Z,18.00
2024-03-21T06:54:38.603Z,19.50
2024-03-21T06:57:06.242Z,19.40
2024-03-21T06:59:33.778Z,17.10
2024-03-21T07:02:01.444Z,17.50
2024-03-21T07:04:28.993Z,17.80
2024-03-21T07:06:56.543Z,16.90
2024-03-21T07:09:24.665Z,17.50
2024-03-21T07:11:52.247Z,16.80
2024-03-21T07:14:20.477Z,18.10
2024-03-21T07:16:48.009Z,18.40
2024-03-21T07:19:15.677Z,17.70
2024-03-21T07:21:43.540Z,19.70
2024-03-21T07:24:11.142Z,17.30
2024-03-21T07:26:38.802Z,18.50
2024-03-21T07:29:08.478Z,17.30
2024-03-21T07:31:35.918Z,17.40
2024-03-21T07:34:03.593Z,16.80
2024-03-21T07:36:31.164Z,15.60
2024-03-21T07:38:58.740Z,14.40
2024-03-21T07:41:26.294Z,14.60
2024-03-21T07:43:53.838Z,13.00
2024-03-21T07:46:25.261Z,14.50
2024-03-21T07:48:54.585Z,15.10
2024-03-21T07:51:22.284Z,15.80
2024-03-21T07:53:50.355Z,14.30
2024-03-21T07:56:17.990Z,15.40
2024-03-21T07:58:45.542Z,14.00
2024-03-21T08:01:13.210Z,15.90
2024-03-21T08:03:41.117Z,14.10
2024-03-21T08:06:08.764Z,13.20
2024-03-21T08:08:36.243Z,13.40
2024-03-21T08:11:04.116Z,14.00
2024-03-21T08:13:31.926Z,13.30
2024-03-21T08:15:59.496Z,13.00
2024-03-21T08:18:27.178Z,12.20
2024-03-21T08:20:54.811Z,12.80
2024-03-21T08:23:22.374Z,12.00
2024-03-21T08:25:50.036Z,11.30
2024-03-21T08:28:17.632Z,11.60
2024-03-21T08:30:46.919Z,11.80
2024-03-21T08:33:17.556Z,12.10
2024-03-21T08:35:46.106Z,10.00
2024-03-21T08:38:13.787Z,9.80
2024-03-21T08:40:41.492Z,10.20
2024-03-21T08:43:09.130Z,10.70
2024-03-21T08:45:37.090Z,10.10
2024-03-21T08:48:06.256Z,10.80
2024-03-21T08:50:33.865Z,10.80
2024-03-21T08:53:01.610Z,11.20
2024-03-21T08:55:29.287Z,10.30
2024-03-21T08:57:56.832Z,10.80
2024-03-21T09:00:24.370Z,9.90
2024-03-21T09:02:51.928Z,9.80
2024-03-21T09:05:19.594Z,8.40
2024-03-21T09:07:47.258Z,10.10
2024-03-21T09:10:15.167Z,9.90
2024-03-21T09:12:44.125Z,9.40
2024-03-21T09:15:14.850Z,9.10
2024-03-21T09:17:42.627Z,9.30
2024-03-21T09:20:10.458Z,9.80
2024-03-21T09:22:38.589Z,9.20
2024-03-21T09:25:06.324Z,9.30
2024-03-21T09:27:34.412Z,9.80
2024-03-21T09:30:02.990Z,9.10
2024-03-21T09:32:30.818Z,10.20
2024-03-21T09:34:58.533Z,8.80
2024-03-21T09:37:26.364Z,9.70
2024-03-21T09:39:54.136Z,9.20
2024-03-21T09:42:22.008Z,9.30
2024-03-21T09:44:50.802Z,9.50
2024-03-21T09:47:20.930Z,8.70
2024-03-21T09:49:48.802Z,9.80
2024-03-21T09:52:16.856Z,10.20
2024-03-21T09:54:44.619Z,9.80
2024-03-21T09:57:13.923Z,9.40
2024-03-21T09:59:42.137Z,9.10
2024-03-21T10:02:15.936Z,9.10
2024-03-21T10:04:48.197Z,9.50
2024-03-21T10:07:22.986Z,9.40
2024-03-21T10:09:57.818Z,9.90
2024-03-21T10:12:26.319Z,10.10
2024-03-21T10:14:56.624Z,11.70
2024-03-21T10:17:24.888Z,12.20
2024-03-21T10:19:53.288Z,10.10
2024-03-21T10:22:24.499Z,10.40
2024-03-21T10:24:53.352Z,9.40
2024-03-21T10:27:21.505Z,10.80
2024-03-21T10:29:49.489Z,9.70
2024-03-21T10:32:21.641Z,11.20
2024-03-21T10:34:54.478Z,10.20
2024-03-21T10:37:25.722Z,10.30
2024-03-21T10:39:55.750Z,10.90
2024-03-21T10:42:28.290Z,11.30
2024-03-21T10:45:05.954Z,11.20
2024-03-21T10:47:33.670Z,12.50
2024-03-21T10:50:01.497Z,12.00
2024-03-21T10:52:29.258Z,11.60
2024-03-21T10:54:58.768Z,11.00
2024-03-21T10:57:26.975Z,11.50
2024-03-21T10:59:58.617Z,12.10
2024-03-21T11:02:30.571Z,12.90
2024-03-21T11:05:15.925Z,11.30
2024-03-21T11:07:46.456Z,11.80
2024-03-21T11:10:21.612Z,12.10
2024-03-21T11:12:50.315Z,10.90
2024-03-21T11:15:18.422Z,11.50
2024-03-21T11:17:47.049Z,10.30
2024-03-21T11:20:16.248Z,10.90
2024-03-21T11:22:47.384Z,10.70
2024-03-21T11:25:15.486Z,11.10
2024-03-21T11:27:43.324Z,10.00
2024-03-21T11:30:11.496Z,10.50
2024-03-21T11:32:39.434Z,9.00
2024-03-21T11:35:10.203Z,9.10
2024-03-21T11:37:37.900Z,9.70
2024-03-21T11:40:07.098Z,9.10
2024-03-21T11:42:35.750Z,9.80
2024-03-21T11:45:04.864Z,9.00
2024-03-21T11:47:32.743Z,8.70
2024-03-21T11:50:00.431Z,9.10
2024-03-21T11:52:28.054Z,9.80
2024-03-21T11:54:55.805Z,9.40
2024-03-21T11:57:23.670Z,10.10
2024-03-21T11:59:51.337Z,9.80
2024-03-21T12:02:19.549Z,9.10
2024-03-21T12:04:47.528Z,9.70
2024-03-21T12:07:16.855Z,10.80
2024-03-21T12:09:44.768Z,9.20
2024-03-21T12:12:16.458Z,9.70
2024-03-21T12:14:44.781Z,8.30
2024-03-21T12:17:12.685Z,7.80
2024-03-21T12:19:40.656Z,8.70
2024-03-21T12:22:13.127Z,9.20
2024-03-21T12:24:41.491Z,9.20
2024-03-21T12:27:09.853Z,8.10
2024-03-21T12:29:37.683Z,7.70
2024-03-21T12:32:06.244Z,7.00
2024-03-21T12:34:34.058Z,8.00
2024-03-21T12:37:01.759Z,7.70
2024-03-21T12:39:30.218Z,8.90
2024-03-21T12:41:57.975Z,7.20
2024-03-21T12:44:25.800Z,8.30
2024-03-21T12:46:53.546Z,7.80
2024-03-21T12:49:21.191Z,7.50
2024-03-21T12:51:48.826Z,8.50
2024-03-21T12:54:16.831Z,9.40
2024-03-21T12:56:45.080Z,7.80
2024-03-21T12:59:12.750Z,7.00
2024-03-21T13:01:40.543Z,6.80
2024-03-21T13:04:08.270Z,8.20
2024-03-21T13:06:36.035Z,6.90
2024-03-21T13:09:05.413Z,7.80
2024-03-21T13:11:33.092Z,6.80
2024-03-21T13:14:00.862Z,8.00
2024-03-21T13:16:28.519Z,7.70
2024-03-21T13:18:57.039Z,7.00
2024-03-21T13:21:25.820Z,7.70
2024-03-21T13:23:53.676Z,7.80
2024-03-21T13:26:21.363Z,7.80
2024-03-21T13:28:49.090Z,7.40
2024-03-21T13:31:16.892Z,7.00
2024-03-21T13:33:44.628Z,8.00
2024-03-21T13:36:12.592Z,6.10
2024-03-21T13:38:40.583Z,6.20
2024-03-21T13:41:08.325Z,7.20
2024-03-21T13:43:36.003Z,7.50
2024-03-21T13:46:04.276Z,7.40
2024-03-21T13:48:31.899Z,7.30
2024-03-21T13:51:00.674Z,8.60
2024-03-21T13:53:30.260Z,7.20
2024-03-21T13:58:27.336Z,6.50
2024-03-21T14:00:55.563Z,6.20
2024-03-21T14:03:24.148Z,6.30
2024-03-21T14:05:52.255Z,7.40
2024-03-21T14:08:20.505Z,6.50
2024-03-21T14:10:48.359Z,6.40
2024-03-21T14:13:17.666Z,7.20
2024-03-21T14:15:45.374Z,6.30
2024-03-21T14:18:13.109Z,7.30
2024-03-21T14:20:43.107Z,6.50
2024-03-21T14:23:10.973Z,6.10
2024-03-21T14:25:38.722Z,7.10
2024-03-21T14:28:07.016Z,5.80
2024-03-21T14:30:34.965Z,7.60
2024-03-21T14:33:02.658Z,6.30
2024-03-21T14:35:30.328Z,6.80
2024-03-21T14:37:58.073Z,8.90
2024-03-21T14:40:25.800Z,7.60
2024-03-21T14:42:53.422Z,7.40
2024-03-21T14:45:30.734Z,9.10
2024-03-21T14:48:04.194Z,7.80
2024-03-21T14:50:32.183Z,8.40
2024-03-21T14:53:01.809Z,6.40
2024-03-21T14:55:30.662Z,6.70
2024-03-21T14:57:58.781Z,5.50
2024-03-21T15:00:26.431Z,6.60
2024-03-21T15:02:55.802Z,6.00
2024-03-21T15:05:24.888Z,6.50
2024-03-21T15:07:52.760Z,7.00
2024-03-21T15:10:20.434Z,6.30
2024-03-21T15:12:50.864Z,6.10
2024-03-21T15:15:18.664Z,6.20
2024-03-21T15:17:46.384Z,6.30
2024-03-21T15:20:14.138Z,6.30
2024-03-21T15:22:42.075Z,5.40
2024-03-21T15:25:12.358Z,5.60
2024-03-21T15:27:42.392Z,6.10
2024-03-21T15:30:10.657Z,4.80
2024-03-21T15:32:38.480Z,5.80
2024-03-21T15:35:10.746Z,5.40
2024-03-21T15:37:38.937Z,5.20
2024-03-21T15:40:08.090Z,5.40
2024-03-21T15:42:35.761Z,6.30
2024-03-21T15:45:04.639Z,13.80
2024-03-21T15:47:33.101Z,12.40
2024-03-21T15:50:00.831Z,19.80
2024-03-21T15:52:29.894Z,13.20
2024-03-21T15:54:57.640Z,15.20
2024-03-21T15:57:25.411Z,18.00
2024-03-21T15:59:53.147Z,9.10
2024-03-21T16:02:20.804Z,8.90
2024-03-21T16:04:48.750Z,13.20
2024-03-21T16:07:16.685Z,10.40
2024-03-21T16:09:44.413Z,14.40
2024-03-21T16:12:12.979Z,12.40
2024-03-21T16:14:40.766Z,13.80
2024-03-21T16:17:08.509Z,10.00
2024-03-21T16:19:36.366Z,9.70
2024-03-21T16:22:04.061Z,9.80
2024-03-21T16:24:31.815Z,8.40
2024-03-21T16:26:59.455Z,7.40
2024-03-21T16:29:28.568Z,8.50
2024-03-21T16:31:57.744Z,9.00
2024-03-21T16:34:27.630Z,7.30
2024-03-21T16:36:55.774Z,7.30
2024-03-21T16:39:23.818Z,7.50
2024-03-21T16:41:51.466Z,7.10
2024-03-21T16:44:19.484Z,6.90
2024-03-21T16:46:47.268Z,8.20
2024-03-21T16:49:15.476Z,7.60
2024-03-21T16:51:43.160Z,6.30
2024-03-21T16:54:11.416Z,6.90
2024-03-21T16:56:39.083Z,7.40
2024-03-21T16:59:07.365Z,8.90
2024-03-21T17:01:35.160Z,8.30
2024-03-21T17:04:04.717Z,6.60
2024-03-21T17:06:32.504Z,5.30
2024-03-21T17:09:00.258Z,6.20
2024-03-21T17:11:28.024Z,6.70
2024-03-21T17:13:55.687Z,7.20
2024-03-21T17:16:23.303Z,7.10
2024-03-21T17:18:51.033Z,6.20
2024-03-21T17:21:19.186Z,7.50
2024-03-21T17:23:46.972Z,6.00
2024-03-21T17:26:14.666Z,7.90
2024-03-21T17:28:42.378Z,6.20
2024-03-21T17:31:10.654Z,6.00
2024-03-21T17:33:38.317Z,6.00
2024-03-21T17:36:06.348Z,6.70
2024-03-21T17:38:34.053Z,6.50
2024-03-21T17:41:06.014Z,5.90
2024-03-21T17:43:36.135Z,6.10
2024-03-21T17:46:04.005Z,6.90
2024-03-21T17:48:31.712Z,7.60
2024-03-21T17:50:59.427Z,7.50
2024-03-21T17:53:27.914Z,7.40
2024-03-21T17:55:55.676Z,6.00
2024-03-21T17:58:23.473Z,6.50
2024-03-21T18:00:51.125Z,8.10
2024-03-21T18:03:23.682Z,7.40
2024-03-21T18:05:53.796Z,6.40
2024-03-21T18:08:22.077Z,6.90
2024-03-21T18:10:51.582Z,7.00
2024-03-21T18:13:22.579Z,6.90
2024-03-21T18:15:50.529Z,5.70
2024-03-21T18:18:18.266Z,6.00
2024-03-21T18:20:47.145Z,6.40
2024-03-21T18:23:15.933Z,7.10
2024-03-21T18:25:43.747Z,6.20
2024-03-21T18:28:12.728Z,6.30
2024-03-21T18:30:40.692Z,6.40
2024-03-21T18:33:09.687Z,5.50
2024-03-21T18:35:38.682Z,5.60
2024-03-21T18:38:06.434Z,4.90
2024-03-21T18:40:34.385Z,4.20
2024-03-21T18:43:02.047Z,3.50
2024-03-21T18:45:29.727Z,3.70
2024-03-21T18:47:57.456Z,3.70
2024-03-21T18:50:29.056Z,4.20
2024-03-21T18:55:24.456Z,3.90
2024-03-21T18:57:52.498Z,4.10
2024-03-21T19:00:20.242Z,3.50
2024-03-21T19:02:47.887Z,3.90
2024-03-21T19:05:15.727Z,4.60
2024-03-21T19:07:43.488Z,4.50
2024-03-21T19:10:11.146Z,4.70
2024-03-21T19:12:38.908Z,4.90
2024-03-21T19:15:07.322Z,5.80
2024-03-21T19:17:34.960Z,4.50
2024-03-21T19:20:02.953Z,3.60
2024-03-21T19:22:31.910Z,3.20
2024-03-21T19:24:59.628Z,4.70
2024-03-21T19:27:29.227Z,5.20
2024-03-21T19:29:56.862Z,4.90
2024-03-21T19:32:25.032Z,4.50
2024-03-21T19:34:53.806Z,4.60
2024-03-21T19:37:21.528Z,3.90
2024-03-21T19:39:51.023Z,3.40
2024-03-21T19:42:18.772Z,3.30
2024-03-21T19:44:46.514Z,3.80
2024-03-21T19:47:14.169Z,4.00
2024-03-21T19:49:41.951Z,3.60
2024-03-21T19:52:09.738Z,3.10
2024-03-21T19:54:37.418Z,3.00
2024-03-21T19:57:05.372Z,2.80
2024-03-21T19:59:32.992Z,3.40
2024-03-21T20:02:00.664Z,3.60
2024-03-21T20:04:28.422Z,3.30
2024-03-21T20:06:56.124Z,3.90
2024-03-21T20:09:23.757Z,4.00
2024-03-21T20:11:51.405Z,5.00
2024-03-21T20:14:19.244Z,5.70
2024-03-21T20:16:48.986Z,4.90
2024-03-21T20:19:17.056Z,3.90
2024-03-21T20:21:44.833Z,4.00
2024-03-21T20:24:12.381Z,4.70
2024-03-21T20:26:40.044Z,3.90
2024-03-21T20:29:07.771Z,3.70
2024-03-21T20:31:35.411Z,3.30
2024-03-21T20:34:03.268Z,3.30
2024-03-21T20:36:31.118Z,3.40
2024-03-21T20:38:58.867Z,3.70
2024-03-21T20:41:27.378Z,3.60
2024-03-21T20:43:55.011Z,4.00
2024-03-21T20:46:22.721Z,4.50
2024-03-21T20:48:50.452Z,3.90
2024-03-21T20:51:18.103Z,5.20
2024-03-21T20:53:45.773Z,4.90
2024-03-21T20:56:15.677Z,5.80
2024-03-21T20:58:43.481Z,5.40
2024-03-21T21:01:12.357Z,6.40
2024-03-21T21:03:51.934Z,11.30
2024-03-21T21:06:19.771Z,11.60
2024-03-21T21:08:48.238Z,8.50
2024-03-21T21:11:15.890Z,8.90
2024-03-21T21:13:43.594Z,9.60
2024-03-21T21:16:11.310Z,10.70
2024-03-21T21:18:39.072Z,8.60
2024-03-21T21:21:06.872Z,8.30
2024-03-21T21:23:35.033Z,7.20
2024-03-21T21:26:04.725Z,9.00
2024-03-21T21:28:35.728Z,10.20
2024-03-21T21:31:11.471Z,8.90
2024-03-21T21:33:39.938Z,7.80
2024-03-21T21:36:11.556Z,8.60
2024-03-21T21:38:39.626Z,8.20
2024-03-21T21:41:08.474Z,9.30
2024-03-21T21:43:38.693Z,10.00
2024-03-21T21:46:08.410Z,8.40
2024-03-21T21:56:20.608Z,7.20
2024-03-21T21:58:49.901Z,6.60
2024-03-21T22:01:17.871Z,6.90
2024-03-21T22:03:45.845Z,6.60
2024-03-21T22:06:13.555Z,6.90
2024-03-21T22:08:41.933Z,6.40
2024-03-21T22:11:14.193Z,6.40
2024-03-21T22:13:44.295Z,7.30
2024-03-21T22:16:20.396Z,6.60
2024-03-21T22:18:52.933Z,6.70
2024-03-21T22:21:20.475Z,6.40
2024-03-21T22:23:48.135Z,7.00
2024-03-21T22:26:18.667Z,7.40
2024-03-21T22:28:46.225Z,6.60
2024-03-21T22:31:13.802Z,7.20
2024-03-21T22:33:41.454Z,6.00
2024-03-21T22:36:10.372Z,7.30
2024-03-21T22:38:38.273Z,6.60
2024-03-21T22:41:06.519Z,7.10
2024-03-21T22:43:34.067Z,6.50
2024-03-21T22:46:03.811Z,6.50
2024-03-21T22:48:32.334Z,6.10
2024-03-21T22:51:00.991Z,5.90
2024-03-21T22:53:28.490Z,5.90
2024-03-21T22:55:56.059Z,6.60
2024-03-21T22:58:24.420Z,6.20
2024-03-21T23:00:51.892Z,6.30
2024-03-21T23:03:19.987Z,6.10
2024-03-21T23:05:47.510Z,5.80
2024-03-21T23:08:15.194Z,6.90
2024-03-21T23:10:42.743Z,6.50
2024-03-21T23:13:10.291Z,6.60
2024-03-21T23:15:37.850Z,6.50
2024-03-21T23:18:09.122Z,6.10
2024-03-21T23:20:36.766Z,6.90
2024-03-21T23:23:04.761Z,7.00
2024-03-21T23:25:32.298Z,6.80
2024-03-21T23:27:59.849Z,7.30
2024-03-21T23:30:27.407Z,7.10
2024-03-21T23:32:55.012Z,8.20
2024-03-21T23:35:23.164Z,7.40
2024-03-21T23:37:50.702Z,7.00
2024-03-21T23:40:18.295Z,7.10
2024-03-21T23:42:46.043Z,6.50
2024-03-21T23:45:13.689Z,6.10
2024-03-21T23:47:43.330Z,6.40
2024-03-21T23:50:10.856Z,6.50
2024-03-21T23:52:38.314Z,6.80
2024-03-21T23:55:06.498Z,6.50
2024-03-21T23:57:34.052Z,6.80
